Kezdőlap
METAR-TAF:

METAR-TAF

Repülőterek :

Ufai nemzetközi repülőtér

Ufa, Oroszország

földrajzi szélesség: 54-43-48N, földrajzi hosszúság: 055-55-48E, magasság: 137 m

Jelenlegi meteorológiai megfigyelések

A jelentés 26 perccel ezelõtt készült, 21:30 UTC
Délnyugati szél 4 kt
Hőmérséklet -12°C
Páratartalom 78%
Légköri nyomás 1042 hPa
Látótávolság 10 km, vagy több
felhőtlen 1500 m magasságban, és nincs gomolyfelhõ

METAR: UWUU 132130Z 23002MPS CAVOK M12/M15 Q1042 R14R/0///60 NOSIG RMK QFE771/1028

Idő: 02:56 (21:56 UTC)

Előrejelzés

A jelentés 1 órával és 57 perccel ezelõtt készült, 19:59 UTC
Az előrejelzés 13-én 21 óra UTC és 14-én 21 óra UTC között érvényes
Délnyugati szél 6 kt széllökések: 16 kt
Látótávolság 10 km, vagy több
Szakadozott felhőzet 3000 lábon
13-én 21 óra UTC és 14-én 21 óra UTC között ideiglenes
Dél-délnyugati szél 10 kt széllökések: 19 kt

TAF: UWUU 131959Z 1321/1421 22003G08MPS 9999 BKN030 TEMPO 1321/1421 20005G10MPS

Meteorológiai megfigyelések és előrejelzések több, mint 4000 repülőtéren (METAR és TAF jelentéseket).

A térképen piros és sárga pontok jelzik az elérhető meteorológiai állomásokat.

Mozgassa az egeret a pont fölött, hogy megjelenjen az állomás neve.

Azután kattintson az időjárási megfigyelések és előrejelzések megtekintéséhez.

A térkép megváltoztatása: kattintson a fekete keresztel jelölt zöld gombra ráközelítéshez, a vonallal jelölt zöld gombra távolításhoz, vagy a zöld nyilakra a szomszédos térképek eléréséhez.


METAR-TAF: